Time;durP1;ratioP1;P1;durP2;ratioP2;P2;SDS_P1;SDS_P2;PMS_P1;PMS_P2;Temp;Humidity;BMP_temperature;BMP_pressure;BME280_temperature;BME280_humidity;BME280_pressure;Samples;Min_cycle;Max_cycle;Signal;HPM_P1;HPM_P2
2023/01/18 00:00:20;;;;;;;3.90;3.60;;;;;;;2.95;100.00;96440.91;6199546;23;20205;-82
2023/01/18 00:02:48;;;;;;;5.40;3.47;;;;;;;2.87;100.00;96436.88;6172768;23;20271;-83
2023/01/18 00:05:15;;;;;;;3.83;3.53;;;;;;;2.89;100.00;96440.03;6197302;23;20270;-82
2023/01/18 00:07:42;;;;;;;4.60;3.73;;;;;;;2.96;100.00;96440.66;6196742;23;20207;-81
2023/01/18 00:10:09;;;;;;;3.60;3.30;;;;;;;2.90;100.00;96424.97;6221816;23;20284;-82
2023/01/18 00:12:36;;;;;;;3.40;3.10;;;;;;;2.73;100.00;96422.44;6196102;23;20239;-82
2023/01/18 00:15:03;;;;;;;2.63;2.43;;;;;;;2.55;100.00;96425.41;6195623;23;20236;-81
2023/01/18 00:17:30;;;;;;;3.03;2.80;;;;;;;2.64;100.00;96423.91;6196538;23;20206;-81
2023/01/18 00:19:57;;;;;;;3.20;2.50;;;;;;;2.63;100.00;96438.97;6222232;23;20253;-82
2023/01/18 00:22:29;;;;;;;2.83;2.63;;;;;;;2.61;100.00;96453.50;6222474;23;20201;-82
2023/01/18 00:24:55;;;;;;;3.07;2.77;;;;;;;2.61;100.00;96453.50;6222833;23;20209;-82
2023/01/18 00:27:22;;;;;;;3.03;2.73;;;;;;;2.57;100.00;96457.66;6219682;23;20237;-82
2023/01/18 00:29:49;;;;;;;3.20;2.90;;;;;;;2.62;100.00;96461.16;6196920;23;20284;-81
2023/01/18 00:32:15;;;;;;;3.33;3.03;;;;;;;2.63;100.00;96469.88;6195994;23;20243;-82
2023/01/18 00:34:42;;;;;;;3.10;2.90;;;;;;;2.72;100.00;96481.63;6223530;23;20206;-83
2023/01/18 00:37:09;;;;;;;3.80;3.20;;;;;;;2.74;100.00;96476.91;6224063;23;20205;-81
2023/01/18 00:39:35;;;;;;;4.17;3.53;;;;;;;2.85;100.00;96483.91;6245905;23;20208;-83
2023/01/18 00:44:55;;;;;;;3.43;3.13;;;;;;;2.91;100.00;96484.75;6207506;23;20523;-82
2023/01/18 00:47:23;;;;;;;3.47;3.17;;;;;;;2.75;100.00;96489.09;6252872;23;20244;-82
2023/01/18 00:49:50;;;;;;;3.60;3.30;;;;;;;2.75;100.00;96485.66;6202928;23;20205;-82
2023/01/18 00:52:17;;;;;;;3.60;3.30;;;;;;;2.97;100.00;96489.06;6228629;23;20231;-81
2023/01/18 00:54:45;;;;;;;3.70;3.40;;;;;;;2.80;100.00;96491.78;6255323;23;20215;-83
2023/01/18 00:57:14;;;;;;;3.60;3.30;;;;;;;2.76;100.00;96485.38;6256697;23;20209;-81
2023/01/18 00:59:41;;;;;;;4.93;3.40;;;;;;;2.83;100.00;96486.00;6228972;23;20284;-82
2023/01/18 01:02:07;;;;;;;3.73;3.43;;;;;;;2.86;100.00;96488.16;6228653;23;20215;-83
2023/01/18 01:07:19;;;;;;;3.67;3.37;;;;;;;2.85;100.00;96468.03;6228086;23;20728;-82
2023/01/18 01:09:46;;;;;;;3.67;3.37;;;;;;;2.77;100.00;96471.13;6233629;23;20232;-83
2023/01/18 01:26:11;;;;;;;3.77;3.40;;;;;;;2.51;100.00;96477.16;6253904;23;20197;-81
2023/01/18 01:28:49;;;;;;;4.13;3.83;;;;;;;2.53;100.00;96482.97;6263900;23;20192;-82
2023/01/18 01:31:18;;;;;;;4.60;4.20;;;;;;;2.71;100.00;96471.31;6207417;23;20258;-82
2023/01/18 01:33:49;;;;;;;4.70;4.30;;;;;;;2.59;100.00;96456.38;6217608;23;20231;-82
2023/01/18 01:36:18;;;;;;;4.53;4.13;;;;;;;2.55;100.00;96475.59;6231499;23;20209;-82
2023/01/18 01:38:46;;;;;;;4.80;4.40;;;;;;;2.41;100.00;96480.44;6219253;23;20235;-81
2023/01/18 01:41:25;;;;;;;5.00;4.57;;;;;;;2.44;100.00;96493.16;6199816;23;20213;-82
2023/01/18 01:43:55;;;;;;;5.17;4.67;;;;;;;2.53;100.00;96504.13;6224896;23;20210;-81
2023/01/18 01:46:55;;;;;;;5.80;5.30;;;;;;;2.51;100.00;96501.72;6201333;23;20280;-81
2023/01/18 01:49:35;;;;;;;5.93;5.43;;;;;;;2.43;100.00;96533.03;6220415;23;20214;-80
2023/01/18 01:52:04;;;;;;;4.80;4.40;;;;;;;2.46;100.00;96554.50;6192312;23;20213;-81
2023/01/18 01:54:34;;;;;;;4.97;4.40;;;;;;;2.58;100.00;96562.31;6219021;23;20189;-81
2023/01/18 01:57:18;;;;;;;5.10;4.60;;;;;;;2.54;100.00;96563.84;6218141;23;20209;-81
2023/01/18 01:59:51;;;;;;;4.90;4.50;;;;;;;2.57;100.00;96552.78;6167573;23;20264;-81
2023/01/18 02:02:18;;;;;;;5.27;4.77;;;;;;;2.63;100.00;96543.91;6217634;23;20693;-81
2023/01/18 02:04:52;;;;;;;5.03;4.57;;;;;;;2.60;100.00;96541.75;6191232;23;20205;-81
2023/01/18 02:07:22;;;;;;;5.17;4.73;;;;;;;2.60;100.00;96539.91;6217974;23;20536;-81
2023/01/18 02:09:50;;;;;;;4.73;4.33;;;;;;;2.60;100.00;96536.47;6190703;23;20220;-80
2023/01/18 02:12:18;;;;;;;4.70;4.30;;;;;;;2.71;100.00;96530.25;6215911;23;20670;-81
2023/01/18 02:14:44;;;;;;;5.00;4.50;;;;;;;2.71;100.00;96538.19;6217070;23;20209;-80
2023/01/18 02:17:31;;;;;;;4.80;4.40;;;;;;;2.72;100.00;96546.91;6217002;23;20209;-81
2023/01/18 02:20:38;;;;;;;4.40;4.00;;;;;;;2.60;100.00;96555.78;6217792;23;20260;-81
2023/01/18 02:23:32;;;;;;;5.27;4.50;;;;;;;2.60;100.00;96560.25;6217616;23;20213;-81
2023/01/18 02:26:12;;;;;;;4.77;4.37;;;;;;;2.64;100.00;96556.06;6218261;23;20216;-81
2023/01/18 02:28:40;;;;;;;4.77;4.37;;;;;;;2.59;100.00;96542.78;6219428;23;20288;-82
2023/01/18 02:31:13;;;;;;;5.07;4.60;;;;;;;2.64;100.00;96540.22;6193118;23;20217;-81
2023/01/18 02:33:45;;;;;;;5.40;4.53;;;;;;;2.57;100.00;96534.28;6219696;23;20205;-81
2023/01/18 02:36:25;;;;;;;4.63;4.00;;;;;;;2.60;100.00;96526.69;6191272;23;20201;-81
2023/01/18 02:38:55;;;;;;;5.20;4.70;;;;;;;2.49;100.00;96524.94;6204481;23;20201;-81
2023/01/18 02:47:10;;;;;;;4.37;4.07;;;;;;;2.50;100.00;96518.63;6202309;23;20213;-82
2023/01/18 02:49:36;;;;;;;4.80;4.40;;;;;;;2.53;100.00;96518.13;6217312;23;20181;-83
2023/01/18 02:52:05;;;;;;;4.83;4.43;;;;;;;2.58;100.00;96512.09;6245933;23;20201;-80
2023/01/18 02:54:34;;;;;;;4.90;4.50;;;;;;;2.59;100.00;96529.56;6249390;23;20204;-81
2023/01/18 02:57:04;;;;;;;5.33;4.80;;;;;;;2.61;100.00;96515.06;6249820;23;20259;-81
2023/01/18 02:59:35;;;;;;;4.80;4.40;;;;;;;2.64;100.00;96505.84;6249819;23;20204;-81
2023/01/18 03:02:11;;;;;;;4.80;4.40;;;;;;;2.65;100.00;96505.63;6249014;23;20235;-79
2023/01/18 03:04:43;;;;;;;4.87;4.47;;;;;;;2.70;100.00;96501.44;6223967;23;20210;-81
2023/01/18 03:07:16;;;;;;;5.33;4.83;;;;;;;2.57;100.00;96503.38;6249524;23;20256;-80
2023/01/18 03:09:43;;;;;;;5.30;4.80;;;;;;;2.60;100.00;96504.75;6213264;23;20212;-82
2023/01/18 03:12:23;;;;;;;5.90;5.40;;;;;;;2.63;100.00;96497.13;6246993;23;20209;-82
2023/01/18 04:02:16;;;;;;;13.30;11.90;;;;;;;2.11;100.00;96490.56;6191434;23;20293;-79
2023/01/18 04:04:46;;;;;;;13.30;11.90;;;;;;;2.21;100.00;96491.53;6193375;23;20284;-80
2023/01/18 04:07:12;;;;;;;13.57;12.17;;;;;;;2.24;100.00;96494.75;6166771;23;20663;-79
2023/01/18 04:09:39;;;;;;;13.27;11.87;;;;;;;2.15;100.00;96491.69;6192393;23;20209;-79
2023/01/18 04:12:06;;;;;;;12.70;11.43;;;;;;;2.18;100.00;96492.03;6190402;23;20288;-78
2023/01/18 04:14:33;;;;;;;13.67;12.27;;;;;;;2.12;100.00;96503.56;6165323;23;20229;-80
2023/01/18 04:16:59;;;;;;;13.53;12.17;;;;;;;2.11;100.00;96504.59;6164895;23;20206;-80
2023/01/18 04:19:27;;;;;;;14.10;12.60;;;;;;;2.09;100.00;96513.81;6190845;23;20222;-80
2023/01/18 04:21:58;;;;;;;14.13;12.63;;;;;;;2.13;100.00;96521.00;6165766;23;20222;-79
2023/01/18 04:24:25;;;;;;;14.33;12.83;;;;;;;2.19;100.00;96519.25;6165376;23;20206;-81
2023/01/18 04:26:53;;;;;;;13.40;12.00;;;;;;;2.16;100.00;96506.50;6182920;23;20208;-81
2023/01/18 04:29:23;;;;;;;14.33;12.30;;;;;;;2.19;100.00;96506.81;6186881;23;20204;-81
2023/01/18 04:32:00;;;;;;;13.60;12.20;;;;;;;2.15;100.00;96518.91;6187640;23;20217;-81
2023/01/18 04:34:28;;;;;;;14.90;13.07;;;;;;;2.01;100.00;96508.91;6179376;23;20206;-80
2023/01/18 04:36:56;;;;;;;15.37;12.70;;;;;;;2.08;100.00;96507.72;6131039;23;20648;-80
2023/01/18 04:39:23;;;;;;;17.13;12.57;;;;;;;2.20;100.00;96504.97;6141934;23;20228;-79
2023/01/18 04:41:50;;;;;;;18.03;12.43;;;;;;;2.11;100.00;96512.50;6187141;23;20206;-78
2023/01/18 04:44:16;;;;;;;16.27;12.93;;;;;;;2.06;100.00;96506.34;6186617;23;20206;-78
2023/01/18 04:46:46;;;;;;;18.00;13.13;;;;;;;1.98;100.00;96501.47;6188344;23;20233;-78
2023/01/18 04:49:15;;;;;;;15.57;12.47;;;;;;;2.07;100.00;96515.88;6187437;23;20225;-79
2023/01/18 04:51:45;;;;;;;15.20;12.93;;;;;;;2.09;100.00;96521.72;6187074;23;20206;-78
2023/01/18 04:54:16;;;;;;;15.93;12.93;;;;;;;2.10;100.00;96531.25;6162410;23;21162;-79
2023/01/18 04:56:42;;;;;;;17.20;13.50;;;;;;;2.01;100.00;96540.59;6162602;23;20206;-79
2023/01/18 04:59:14;;;;;;;14.37;12.00;;;;;;;2.11;100.00;96565.31;6188683;23;20209;-79
2023/01/18 05:01:41;;;;;;;13.37;10.53;;;;;;;2.17;100.00;96576.78;6161929;23;20210;-78
2023/01/18 05:04:10;;;;;;;11.10;9.90;;;;;;;2.20;100.00;96594.78;6160532;23;20268;-78
2023/01/18 05:06:37;;;;;;;9.93;8.93;;;;;;;2.22;100.00;96593.50;6188712;23;20226;-79
2023/01/18 05:09:05;;;;;;;11.03;9.83;;;;;;;2.28;100.00;96606.81;6191627;23;20236;-80
2023/01/18 05:11:32;;;;;;;10.87;9.77;;;;;;;2.28;100.00;96612.09;6123151;23;20210;-80
2023/01/18 05:13:59;;;;;;;11.13;9.70;;;;;;;2.33;100.00;96622.75;6195874;23;20542;-80
2023/01/18 05:16:26;;;;;;;10.73;9.07;;;;;;;2.35;100.00;96624.09;6194220;23;20236;-80
2023/01/18 05:18:55;;;;;;;10.13;9.00;;;;;;;2.27;100.00;96629.78;6192098;23;20285;-79
2023/01/18 05:21:21;;;;;;;10.97;9.63;;;;;;;2.32;100.00;96624.56;6192325;23;20206;-79
2023/01/18 05:23:48;;;;;;;11.37;10.10;;;;;;;2.30;100.00;96628.47;6192933;23;20681;-79
2023/01/18 05:26:20;;;;;;;12.10;10.50;;;;;;;2.27;100.00;96632.41;6177331;23;20663;-79
2023/01/18 05:28:48;;;;;;;12.27;10.33;;;;;;;2.31;100.00;96628.25;6192950;23;20217;-80
2023/01/18 05:31:19;;;;;;;11.90;10.00;;;;;;;2.30;100.00;96628.47;6165852;23;20210;-80
2023/01/18 05:33:47;;;;;;;12.97;10.90;;;;;;;2.36;100.00;96633.63;6143554;23;20260;-80
2023/01/18 05:36:14;;;;;;;12.57;10.87;;;;;;;2.56;100.00;96630.50;6191826;23;20206;-80
2023/01/18 05:38:43;;;;;;;11.63;10.40;;;;;;;2.49;100.00;96630.66;6191148;23;20229;-80
2023/01/18 05:41:11;;;;;;;12.63;10.93;;;;;;;2.45;100.00;96623.44;6190070;23;20206;-80
2023/01/18 05:43:52;;;;;;;12.80;10.83;;;;;;;2.44;100.00;96633.22;6190326;23;20658;-80
2023/01/18 05:46:18;;;;;;;13.70;11.40;;;;;;;2.46;100.00;96648.84;6191038;23;20210;-80
2023/01/18 05:48:45;;;;;;;13.83;11.37;;;;;;;2.50;100.00;96648.13;6192854;23;20232;-80
2023/01/18 05:51:12;;;;;;;14.30;11.73;;;;;;;2.47;100.00;96648.56;6166272;23;20226;-80
2023/01/18 05:53:40;;;;;;;13.07;11.23;;;;;;;2.51;100.00;96647.09;6166198;23;20209;-80
2023/01/18 05:56:09;;;;;;;13.80;11.80;;;;;;;2.56;100.00;96643.72;6191618;23;20250;-80
2023/01/18 05:58:38;;;;;;;14.57;12.77;;;;;;;2.58;100.00;96660.13;6192728;23;20551;-81
2023/01/18 06:01:10;;;;;;;13.60;11.63;;;;;;;2.63;100.00;96666.28;6194158;23;20210;-80
2023/01/18 06:03:37;;;;;;;13.03;11.07;;;;;;;2.64;100.00;96664.44;6222777;23;20211;-80
2023/01/18 06:06:03;;;;;;;14.13;12.13;;;;;;;2.60;100.00;96664.13;6151997;23;20290;-80
2023/01/18 06:08:32;;;;;;;12.33;10.97;;;;;;;2.64;100.00;96656.53;6196547;23;20251;-80
2023/01/18 06:10:59;;;;;;;13.73;11.93;;;;;;;2.72;100.00;96665.88;6190994;23;20586;-80
2023/01/18 06:13:29;;;;;;;13.30;11.57;;;;;;;2.73;100.00;96652.44;6166270;23;20190;-80
2023/01/18 06:15:56;;;;;;;13.47;11.37;;;;;;;2.68;100.00;96655.00;6166425;23;20210;-81
2023/01/18 06:18:25;;;;;;;14.90;12.50;;;;;;;2.71;100.00;96664.31;6165812;23;20224;-81
2023/01/18 06:20:56;;;;;;;20.67;17.70;;;;;;;2.66;100.00;96657.06;6165899;23;20547;-80
2023/01/18 06:23:26;;;;;;;17.43;15.33;;;;;;;2.66;100.00;96657.06;6167535;23;20210;-81
2023/01/18 06:25:53;;;;;;;15.07;13.33;;;;;;;2.65;100.00;96656.28;6165135;23;20206;-80
2023/01/18 06:28:21;;;;;;;12.80;11.43;;;;;;;2.69;100.00;96661.88;6175624;23;20202;-80
2023/01/18 06:30:56;;;;;;;13.13;11.17;;;;;;;2.72;100.00;96665.88;6190158;23;20213;-81
2023/01/18 06:33:23;;;;;;;13.20;11.03;;;;;;;2.71;100.00;96669.59;6192882;23;20683;-80
2023/01/18 06:36:04;;;;;;;12.73;11.00;;;;;;;2.66;100.00;96660.50;6189411;23;20208;-79
2023/01/18 06:38:31;;;;;;;13.67;11.07;;;;;;;2.70;100.00;96673.25;6192417;23;20593;-80
2023/01/18 06:40:59;;;;;;;12.37;10.60;;;;;;;2.75;100.00;96683.91;6166220;23;20213;-80
2023/01/18 06:43:26;;;;;;;11.97;10.23;;;;;;;2.76;100.00;96688.94;6166184;23;20234;-79
2023/01/18 06:45:55;;;;;;;12.17;10.23;;;;;;;2.73;100.00;96691.28;6166564;23;20233;-80
2023/01/18 06:48:23;;;;;;;10.63;9.53;;;;;;;2.75;100.00;96687.38;6166144;23;20202;-80
2023/01/18 06:50:53;;;;;;;10.33;9.20;;;;;;;2.81;100.00;96688.22;6166983;23;20216;-81
2023/01/18 06:53:22;;;;;;;10.83;9.13;;;;;;;2.82;100.00;96681.91;6192390;23;20226;-80
2023/01/18 06:55:55;;;;;;;11.37;9.70;;;;;;;2.82;100.00;96688.00;6192222;23;20666;-80
2023/01/18 06:58:24;;;;;;;10.70;8.63;;;;;;;2.86;100.00;96701.53;6165155;23;20202;-80
2023/01/18 07:00:55;;;;;;;9.90;8.00;;;;;;;2.92;100.00;96708.50;6141927;23;20531;-80
2023/01/18 07:03:24;;;;;;;8.60;7.70;;;;;;;2.94;100.00;96709.06;6162513;23;20285;-80
2023/01/18 07:05:59;;;;;;;8.93;7.97;;;;;;;2.93;100.00;96716.19;6136747;23;20207;-80
2023/01/18 07:08:27;;;;;;;7.87;7.07;;;;;;;2.99;100.00;96727.63;6161394;23;20202;-80
2023/01/18 07:10:53;;;;;;;8.23;7.20;;;;;;;3.03;100.00;96711.03;6161951;23;20189;-81
2023/01/18 07:13:21;;;;;;;7.80;7.00;;;;;;;3.00;100.00;96708.09;6160823;23;20207;-80
2023/01/18 07:15:55;;;;;;;8.00;6.87;;;;;;;3.08;100.00;96723.53;6111050;23;20214;-80
2023/01/18 07:18:25;;;;;;;7.87;6.37;;;;;;;3.05;100.00;96705.53;6137290;23;20206;-81
2023/01/18 07:21:06;;;;;;;8.20;7.00;;;;;;;3.09;100.00;96715.38;6137472;23;20186;-81
2023/01/18 07:23:34;;;;;;;7.87;6.50;;;;;;;3.05;100.00;96716.91;6137489;23;20241;-81
2023/01/18 07:26:22;;;;;;;7.00;6.10;;;;;;;3.08;100.00;96736.75;6137986;23;20672;-79
2023/01/18 07:28:50;;;;;;;6.70;6.00;;;;;;;3.10;100.00;96743.44;6140627;23;20186;-81
2023/01/18 07:31:17;;;;;;;6.80;6.10;;;;;;;3.10;100.00;96742.63;6138859;23;20210;-82
2023/01/18 07:33:44;;;;;;;6.33;5.73;;;;;;;3.16;100.00;96744.31;6139787;23;20191;-80
2023/01/18 07:36:13;;;;;;;6.90;6.20;;;;;;;3.15;100.00;96748.00;6138335;23;20656;-80
2023/01/18 07:38:40;;;;;;;6.27;5.67;;;;;;;3.17;100.00;96747.75;6137603;23;20221;-81
2023/01/18 07:41:14;;;;;;;7.27;6.57;;;;;;;3.16;100.00;96749.59;6114294;23;20266;-81
2023/01/18 07:43:43;;;;;;;7.80;7.00;;;;;;;3.17;100.00;96756.50;6163668;23;20300;-81
2023/01/18 07:46:13;;;;;;;7.57;6.70;;;;;;;3.23;100.00;96770.59;6137214;23;20233;-79
2023/01/18 07:48:40;;;;;;;8.37;7.27;;;;;;;3.20;100.00;96756.00;6163470;23;20218;-80
2023/01/18 07:51:08;;;;;;;8.30;7.30;;;;;;;3.33;100.00;96762.81;6164958;23;20207;-81
2023/01/18 07:53:36;;;;;;;12.13;10.83;;;;;;;3.32;100.00;96774.44;6137362;23;20286;-80
2023/01/18 07:56:05;;;;;;;11.30;10.10;;;;;;;3.36;100.00;96780.88;6138378;23;20207;-79
2023/01/18 07:58:33;;;;;;;10.30;8.80;;;;;;;3.29;100.00;96780.22;6130492;23;20205;-80
2023/01/18 08:01:02;;;;;;;11.47;8.17;;;;;;;3.25;100.00;96787.84;6157592;23;20663;-80
2023/01/18 08:03:29;;;;;;;13.03;8.57;;;;;;;3.28;100.00;96800.56;6168388;23;20232;-81
2023/01/18 08:05:57;;;;;;;11.93;8.73;;;;;;;3.28;100.00;96813.00;6117329;23;20229;-80
2023/01/18 08:08:26;;;;;;;13.00;9.93;;;;;;;3.31;100.00;96810.66;6141052;23;20206;-80
2023/01/18 08:10:57;;;;;;;12.57;9.83;;;;;;;3.32;100.00;96817.56;6165450;23;20202;-80
2023/01/18 08:13:25;;;;;;;14.37;9.90;;;;;;;3.40;100.00;96826.97;6110826;23;20214;-80
2023/01/18 08:15:53;;;;;;;13.70;10.07;;;;;;;3.38;100.00;96831.69;6138908;23;20214;-80
2023/01/18 08:18:20;;;;;;;12.27;9.67;;;;;;;3.36;100.00;96850.44;6153760;23;20238;-80
2023/01/18 08:20:48;;;;;;;14.63;10.87;;;;;;;3.41;100.00;96852.38;6146378;23;20203;-80
2023/01/18 08:23:15;;;;;;;14.73;10.80;;;;;;;3.46;100.00;96849.81;6161328;23;20214;-80
2023/01/18 08:25:43;;;;;;;15.77;12.10;;;;;;;3.48;100.00;96850.38;6116907;23;20282;-80
2023/01/18 08:28:10;;;;;;;15.70;11.50;;;;;;;3.55;100.00;96861.59;6141339;23;20667;-80
2023/01/18 08:30:42;;;;;;;14.30;10.87;;;;;;;3.66;100.00;96851.97;6127730;23;20183;-79
2023/01/18 08:33:09;;;;;;;14.47;11.47;;;;;;;3.86;100.00;96863.66;6171093;23;20221;-79
2023/01/18 08:35:45;;;;;;;15.00;10.87;;;;;;;4.02;100.00;96851.41;6164051;23;20285;-80
2023/01/18 08:38:13;;;;;;;15.83;10.67;;;;;;;4.16;100.00;96870.38;6118385;23;20281;-79
2023/01/18 08:40:40;;;;;;;15.37;12.10;;;;;;;4.25;100.00;96866.25;6162604;23;20273;-79
2023/01/18 08:43:08;;;;;;;16.67;13.90;;;;;;;4.21;100.00;96873.91;6168223;23;20210;-79
2023/01/18 08:45:35;;;;;;;14.23;11.53;;;;;;;4.14;100.00;96872.50;6161358;23;20194;-80
2023/01/18 08:48:04;;;;;;;14.47;10.87;;;;;;;4.17;100.00;96880.75;6163882;23;20544;-80
2023/01/18 08:50:32;;;;;;;13.30;10.23;;;;;;;4.21;100.00;96875.75;6165759;23;20237;-79
2023/01/18 08:52:59;;;;;;;12.90;10.53;;;;;;;4.26;100.00;96883.78;6165683;23;20210;-80
2023/01/18 08:55:28;;;;;;;14.17;9.73;;;;;;;4.27;100.00;96885.38;6118106;23;20550;-79
2023/01/18 08:57:56;;;;;;;13.00;10.00;;;;;;;4.30;100.00;96891.00;6171742;23;20250;-80
2023/01/18 09:00:27;;;;;;;13.27;9.93;;;;;;;4.38;100.00;96901.19;6138023;23;20202;-80
2023/01/18 09:02:55;;;;;;;13.43;9.53;;;;;;;4.33;100.00;96902.97;6117923;23;20238;-80
2023/01/18 09:05:23;;;;;;;11.67;9.23;;;;;;;4.34;100.00;96908.00;6155323;23;20206;-80
2023/01/18 09:11:05;;;;;;;10.67;8.23;;;;;;;4.40;100.00;96904.38;6166667;23;20257;-80
2023/01/18 16:32:37;;;;;;;15.30;10.83;;;;;;;4.64;100.00;97475.16;6291444;22;1451458;-80
2023/01/18 16:52:37;;;;;;;8.20;6.40;;;;;;;4.37;100.00;97476.69;6202352;23;20213;-80
2023/01/18 16:55:04;;;;;;;10.33;6.33;;;;;;;4.28;100.00;97483.38;6189861;23;20689;-80
2023/01/18 16:57:31;;;;;;;8.13;6.60;;;;;;;4.22;100.00;97495.72;6169385;23;20207;-81
2023/01/18 16:59:58;;;;;;;8.83;6.90;;;;;;;4.07;100.00;97487.41;6158810;23;20214;-80
2023/01/18 17:02:24;;;;;;;10.03;7.17;;;;;;;4.08;100.00;97510.22;6159159;23;20199;-80
2023/01/18 17:04:51;;;;;;;11.27;7.63;;;;;;;3.98;100.00;97525.88;6159292;23;20217;-80
2023/01/18 17:07:18;;;;;;;12.30;7.50;;;;;;;3.91;100.00;97517.25;6133580;23;20206;-80
2023/01/18 17:09:45;;;;;;;9.67;6.77;;;;;;;3.90;100.00;97524.38;6159464;23;20281;-82
2023/01/18 17:12:15;;;;;;;10.43;6.70;;;;;;;3.88;100.00;97526.44;6156833;23;20234;-80
2023/01/18 17:14:41;;;;;;;9.20;7.13;;;;;;;3.88;100.00;97539.69;6159672;23;20755;-80
2023/01/18 17:17:09;;;;;;;9.03;6.50;;;;;;;3.86;100.00;97541.75;6159273;23;20206;-80
2023/01/18 17:19:36;;;;;;;10.97;6.27;;;;;;;3.85;100.00;97550.75;6160276;23;20207;-80
2023/01/18 17:22:05;;;;;;;10.60;6.37;;;;;;;3.84;100.00;97549.13;6157607;23;20206;-80
2023/01/18 17:24:32;;;;;;;12.73;8.73;;;;;;;3.80;100.00;97539.19;6159315;23;20213;-81
2023/01/18 17:26:58;;;;;;;17.13;10.27;;;;;;;3.61;100.00;97541.09;6157518;23;20221;-80
2023/01/18 17:29:25;;;;;;;13.30;8.83;;;;;;;3.65;100.00;97547.56;6157131;23;20578;-80
2023/01/18 17:31:51;;;;;;;14.10;8.83;;;;;;;3.61;100.00;97550.88;6158280;23;20218;-80
2023/01/18 17:34:21;;;;;;;13.57;8.37;;;;;;;3.53;100.00;97559.97;6167884;23;20277;-82
2023/01/18 17:36:54;;;;;;;14.00;8.13;;;;;;;3.52;100.00;97572.41;6157037;23;20210;-80
2023/01/18 17:39:21;;;;;;;10.23;6.87;;;;;;;3.51;100.00;97589.31;6168118;23;20206;-80
2023/01/18 17:41:48;;;;;;;10.37;6.27;;;;;;;3.51;100.00;97609.69;6157683;23;20203;-81
2023/01/18 17:44:15;;;;;;;10.17;6.03;;;;;;;3.42;100.00;97609.19;6157284;23;20209;-80
2023/01/18 17:46:42;;;;;;;7.40;5.10;;;;;;;3.38;100.00;97596.63;6158630;23;20198;-80
2023/01/18 17:49:09;;;;;;;7.07;5.03;;;;;;;3.34;100.00;97590.16;6158212;23;20203;-81
2023/01/18 17:51:37;;;;;;;8.53;5.03;;;;;;;3.36;100.00;97594.19;6161220;23;20203;-81
2023/01/18 17:54:03;;;;;;;8.83;4.90;;;;;;;3.27;100.00;97594.69;6187485;23;20210;-79
2023/01/18 17:56:38;;;;;;;7.37;4.53;;;;;;;3.25;100.00;97589.66;6188053;23;20215;-81
2023/01/18 17:59:08;;;;;;;5.60;4.17;;;;;;;3.24;100.00;97576.63;6186755;23;20288;-80
2023/01/18 18:01:35;;;;;;;6.17;4.60;;;;;;;3.21;100.00;97566.50;6188517;23;20189;-80
2023/01/18 18:04:02;;;;;;;7.93;6.13;;;;;;;3.24;100.00;97576.63;6187840;23;20229;-79
2023/01/18 18:06:31;;;;;;;6.50;4.87;;;;;;;3.23;100.00;97583.75;6187628;23;20206;-82
2023/01/18 18:09:00;;;;;;;7.37;4.17;;;;;;;3.21;100.00;97582.38;6185734;23;20253;-81
2023/01/18 18:11:27;;;;;;;5.63;4.20;;;;;;;3.22;100.00;97586.66;6187707;23;20266;-81
2023/01/18 18:13:55;;;;;;;6.03;4.27;;;;;;;3.17;100.00;97589.97;6187146;23;20257;-80
2023/01/18 18:16:22;;;;;;;4.47;3.90;;;;;;;3.19;100.00;97598.47;6179966;23;20568;-80
2023/01/18 18:18:51;;;;;;;5.37;4.00;;;;;;;3.17;100.00;97603.19;6157664;23;20210;-81
2023/01/18 18:21:17;;;;;;;4.93;3.97;;;;;;;3.19;100.00;97616.19;6157631;23;20203;-80
2023/01/18 18:23:44;;;;;;;5.70;4.83;;;;;;;3.22;100.00;97610.47;6155763;23;20214;-81
2023/01/18 18:26:11;;;;;;;9.97;5.30;;;;;;;3.24;100.00;97624.28;6156509;23;20214;-81
2023/01/18 18:28:38;;;;;;;9.70;8.53;;;;;;;3.24;100.00;97634.84;6157346;23;20211;-80
2023/01/18 18:31:05;;;;;;;8.40;7.60;;;;;;;3.16;100.00;97638.63;6157650;23;20242;-81
2023/01/18 18:33:31;;;;;;;7.07;6.37;;;;;;;3.12;100.00;97629.50;6157983;23;20206;-81
2023/01/18 18:36:00;;;;;;;8.07;6.70;;;;;;;3.20;100.00;97625.75;6159508;23;20218;-81
2023/01/18 18:38:26;;;;;;;9.00;6.97;;;;;;;3.16;100.00;97629.88;6158448;23;20710;-81
2023/01/18 18:40:53;;;;;;;7.23;6.53;;;;;;;3.14;100.00;97642.50;6159304;23;20226;-81
2023/01/18 18:43:23;;;;;;;8.43;6.53;;;;;;;3.13;100.00;97640.91;6157185;23;20226;-81
2023/01/18 18:45:49;;;;;;;6.67;5.63;;;;;;;3.07;100.00;97639.94;6157601;23;20277;-81
2023/01/18 18:48:16;;;;;;;8.60;5.70;;;;;;;3.07;100.00;97646.03;6158799;23;20210;-81
2023/01/18 18:50:43;;;;;;;7.90;6.27;;;;;;;3.10;100.00;97648.25;6159461;23;20663;-81
2023/01/18 18:53:09;;;;;;;8.60;6.10;;;;;;;3.12;100.00;97655.16;6180264;23;20202;-80
2023/01/18 18:55:36;;;;;;;7.97;5.80;;;;;;;3.15;100.00;97657.34;6161194;23;20206;-80
2023/01/18 18:58:02;;;;;;;7.77;6.23;;;;;;;3.15;100.00;97668.75;6162483;23;20212;-79
2023/01/18 19:00:29;;;;;;;6.57;5.83;;;;;;;3.15;100.00;97665.28;6161023;23;20209;-80
2023/01/18 19:02:57;;;;;;;11.47;9.03;;;;;;;3.15;100.00;97665.28;6187015;23;20218;-81
2023/01/18 19:05:24;;;;;;;16.17;14.33;;;;;;;3.16;100.00;97675.66;6161622;23;20751;-80
2023/01/18 19:07:51;;;;;;;12.20;9.83;;;;;;;3.21;100.00;97675.00;6188400;23;20293;-81
2023/01/18 19:10:18;;;;;;;11.43;9.20;;;;;;;3.19;100.00;97674.41;6188151;23;20221;-80
2023/01/18 19:12:45;;;;;;;9.57;8.33;;;;;;;3.16;100.00;97667.72;6189350;23;20226;-80
2023/01/18 19:15:12;;;;;;;11.87;8.43;;;;;;;3.22;100.00;97680.06;6188462;23;20212;-81
2023/01/18 19:17:38;;;;;;;8.87;7.83;;;;;;;3.21;100.00;97667.06;6188950;23;20253;-80
2023/01/18 19:20:08;;;;;;;8.40;7.20;;;;;;;3.21;100.00;97672.34;6172769;23;20273;-79
2023/01/18 19:22:38;;;;;;;12.47;10.80;;;;;;;3.23;100.00;97681.69;6189278;23;20210;-80
2023/01/18 19:25:05;;;;;;;59.03;41.43;;;;;;;3.22;100.00;97679.28;6189198;23;20213;-80
2023/01/18 19:27:32;;;;;;;20.40;17.40;;;;;;;3.26;100.00;97670.69;6188817;23;20214;-80
2023/01/18 19:29:58;;;;;;;25.77;20.83;;;;;;;3.37;100.00;97672.56;6174948;23;20210;-81
2023/01/18 19:32:25;;;;;;;31.87;25.40;;;;;;;3.22;100.00;97668.69;6186720;23;20198;-81
2023/01/18 19:34:51;;;;;;;29.80;25.13;;;;;;;3.17;100.00;97671.19;6188741;23;20277;-81
2023/01/18 19:37:18;;;;;;;29.83;26.67;;;;;;;3.18;100.00;97665.66;6187083;23;20201;-81
2023/01/18 19:39:45;;;;;;;25.50;22.97;;;;;;;3.18;100.00;97670.94;6188351;23;20213;-81
2023/01/18 19:42:11;;;;;;;22.83;20.43;;;;;;;3.12;100.00;97663.91;6188836;23;20217;-81
2023/01/18 19:44:38;;;;;;;22.33;19.90;;;;;;;3.05;100.00;97665.78;6188443;23;20210;-81
2023/01/18 19:47:04;;;;;;;18.97;17.00;;;;;;;3.07;100.00;97664.56;6163012;23;20701;-81
2023/01/18 19:49:31;;;;;;;20.33;17.43;;;;;;;3.08;100.00;97666.16;6163415;23;20241;-81
2023/01/18 19:51:58;;;;;;;17.70;15.90;;;;;;;3.06;100.00;97667.41;6133037;23;20293;-81
2023/01/18 19:54:24;;;;;;;17.77;14.43;;;;;;;2.97;100.00;97663.44;6158789;23;20209;-80
2023/01/18 19:56:51;;;;;;;15.13;13.53;;;;;;;2.98;100.00;97671.16;6158617;23;20590;-80
2023/01/18 19:59:18;;;;;;;11.27;8.20;;;;;;;3.00;100.00;97669.09;6157685;23;20293;-81
2023/01/18 20:01:44;;;;;;;7.10;6.37;;;;;;;2.96;100.00;97662.63;6158576;23;20203;-81
2023/01/18 20:04:14;;;;;;;7.17;5.00;;;;;;;2.97;100.00;97658.16;6157215;23;20551;-81
2023/01/18 20:06:42;;;;;;;6.70;4.60;;;;;;;2.93;100.00;97664.91;6156564;23;20203;-81
2023/01/18 20:09:13;;;;;;;5.90;4.57;;;;;;;2.80;100.00;97665.81;6158265;23;20214;-81
2023/01/18 20:11:46;;;;;;;9.57;4.50;;;;;;;2.84;100.00;97660.94;6154473;23;20222;-81
2023/01/18 20:14:13;;;;;;;5.57;4.23;;;;;;;2.80;100.00;97665.03;6156700;23;20214;-80
2023/01/18 20:16:40;;;;;;;4.90;4.33;;;;;;;2.68;100.00;97667.56;6157860;23;20226;-81
2023/01/18 20:19:18;;;;;;;6.10;4.93;;;;;;;2.64;100.00;97682.25;6157441;23;20229;-81
2023/01/18 20:21:45;;;;;;;5.57;4.87;;;;;;;2.59;100.00;97693.47;6166124;23;20206;-81
2023/01/18 20:24:12;;;;;;;7.10;5.33;;;;;;;2.59;100.00;97698.75;6155811;23;20211;-81
2023/01/18 20:26:39;;;;;;;7.10;5.50;;;;;;;2.53;100.00;97704.91;6158127;23;20214;-82